createdAt,value
2022-12-13T00:01:57.703Z,96309.03
2022-12-13T00:04:59.396Z,96309.19
2022-12-13T00:08:01.873Z,96297.91
2022-12-13T00:11:06.512Z,96281.16
2022-12-13T00:14:08.131Z,96283.72
2022-12-13T00:17:09.760Z,96274.53
2022-12-13T00:20:12.646Z,96280.91
2022-12-13T00:23:14.281Z,96272.72
2022-12-13T00:26:19.089Z,96276.94
2022-12-13T00:29:20.806Z,96279.50
2022-12-13T00:32:22.437Z,96274.78
2022-12-13T00:35:24.672Z,96281.91
2022-12-13T00:38:26.224Z,96289.19
2022-12-13T00:41:33.525Z,96289.38
2022-12-13T00:44:35.167Z,96279.78
2022-12-13T00:47:36.865Z,96282.44
2022-12-13T00:50:38.802Z,96285.16
2022-12-13T00:53:40.420Z,96276.72
2022-12-13T00:56:42.332Z,96272.19
2022-12-13T00:59:43.911Z,96276.22
2022-12-13T01:02:45.829Z,96271.34
2022-12-13T01:06:14.325Z,96264.56
2022-12-13T01:09:19.945Z,96260.44
2022-12-13T01:12:21.756Z,96253.06
2022-12-13T01:15:23.215Z,96245.56
2022-12-13T01:18:24.778Z,96245.22
2022-12-13T01:21:26.496Z,96242.06
2022-12-13T01:24:29.526Z,96235.28
2022-12-13T01:27:31.139Z,96223.22
2022-12-13T01:30:32.810Z,96237.34
2022-12-13T01:33:34.651Z,96236.13
2022-12-13T01:36:38.209Z,96239.59
2022-12-13T01:39:39.907Z,96242.41
2022-12-13T01:42:41.583Z,96235.53
2022-12-13T01:45:44.058Z,96239.28
2022-12-13T01:49:24.221Z,96237.13
2022-12-13T01:52:26.127Z,96245.81
2022-12-13T01:55:31.878Z,96236.56
2022-12-13T01:58:36.688Z,96222.25
2022-12-13T02:01:39.030Z,96236.31
2022-12-13T02:04:50.821Z,96245.72
2022-12-13T02:07:53.051Z,96241.59
2022-12-13T02:10:54.997Z,96243.75
2022-12-13T02:13:56.549Z,96244.41
2022-12-13T02:17:11.735Z,96245.56
2022-12-13T02:20:22.601Z,96229.38
2022-12-13T02:23:45.864Z,96226.66
2022-12-13T02:27:30.295Z,96211.19
2022-12-13T02:30:43.150Z,96220.38
2022-12-13T02:34:00.990Z,96222.34
2022-12-13T02:37:37.736Z,96219.13
2022-12-13T02:40:45.316Z,96216.31
2022-12-13T02:43:53.962Z,96214.75
2022-12-13T02:47:12.741Z,96210.72
2022-12-13T02:50:26.160Z,96201.44
2022-12-13T02:53:28.983Z,96205.22
2022-12-13T02:56:32.101Z,96208.56
2022-12-13T02:59:36.696Z,96197.81
2022-12-13T03:03:12.124Z,96200.22
2022-12-13T03:06:34.288Z,96188.38
2022-12-13T03:10:18.750Z,96196.88
2022-12-13T03:13:38.986Z,96189.69
2022-12-13T03:16:44.017Z,96179.66
2022-12-13T03:19:47.198Z,96180.22
2022-12-13T03:22:48.793Z,96155.19
2022-12-13T03:25:55.816Z,96158.81
2022-12-13T03:28:57.412Z,96167.50
2022-12-13T03:32:00.126Z,96163.78
2022-12-13T03:35:01.744Z,96160.78
2022-12-13T03:38:04.150Z,96164.09
2022-12-13T03:41:09.872Z,96159.47
2022-12-13T03:44:11.432Z,96167.91
2022-12-13T03:47:12.892Z,96160.97
2022-12-13T03:50:27.200Z,96161.28
2022-12-13T03:53:33.147Z,96159.91
2022-12-13T03:56:35.456Z,96164.59
2022-12-13T03:59:39.047Z,96167.50
2022-12-13T04:02:40.725Z,96157.00
2022-12-13T04:05:42.789Z,96157.50
2022-12-13T04:08:44.438Z,96163.09
2022-12-13T04:12:04.312Z,96160.22
2022-12-13T04:15:06.607Z,96155.50
2022-12-13T04:18:08.260Z,96158.16
2022-12-13T04:21:10.632Z,96153.34
2022-12-13T04:24:12.211Z,96160.28
2022-12-13T04:27:13.793Z,96154.94
2022-12-13T04:30:15.384Z,96164.25
2022-12-13T04:33:16.976Z,96171.84
2022-12-13T04:36:31.872Z,96163.16
2022-12-13T04:39:34.684Z,96164.97
2022-12-13T04:42:36.544Z,96163.91
2022-12-13T04:45:38.325Z,96158.78
2022-12-13T04:48:39.956Z,96152.16
2022-12-13T04:51:41.601Z,96164.41
2022-12-13T04:54:56.147Z,96153.53
2022-12-13T04:57:58.081Z,96155.34
2022-12-13T05:00:59.782Z,96158.00
2022-12-13T05:04:04.225Z,96142.28
2022-12-13T05:07:05.860Z,96148.75
2022-12-13T05:10:08.281Z,96153.88
2022-12-13T05:13:09.855Z,96150.47
2022-12-13T05:16:11.840Z,96139.09
2022-12-13T05:19:13.937Z,96130.31
2022-12-13T05:22:19.738Z,96136.84
2022-12-13T05:25:22.034Z,96133.38
2022-12-13T05:28:28.180Z,96128.09
2022-12-13T05:31:30.459Z,96131.06
2022-12-13T05:34:31.970Z,96131.81
2022-12-13T05:37:34.875Z,96131.31
2022-12-13T05:40:36.670Z,96126.28
2022-12-13T05:43:43.097Z,96119.16
2022-12-13T05:46:45.408Z,96123.38
2022-12-13T05:49:46.935Z,96129.47
2022-12-13T05:52:48.476Z,96122.22
2022-12-13T05:55:50.137Z,96123.97
2022-12-13T05:58:53.369Z,96120.25
2022-12-13T06:01:57.010Z,96123.16
2022-12-13T06:04:58.683Z,96117.44
2022-12-13T06:08:00.509Z,96127.34
2022-12-13T06:11:11.489Z,96129.47
2022-12-13T06:14:21.727Z,96137.91
2022-12-13T06:17:25.208Z,96135.50
2022-12-13T06:20:27.023Z,96133.41
2022-12-13T06:23:31.185Z,96147.84
2022-12-13T06:26:32.748Z,96129.56
2022-12-13T06:29:34.303Z,96130.63
2022-12-13T06:32:38.911Z,96133.53
2022-12-13T06:35:42.805Z,96142.69
2022-12-13T06:38:44.339Z,96143.53
2022-12-13T06:41:45.854Z,96146.13
2022-12-13T06:44:47.464Z,96140.28
2022-12-13T06:47:49.061Z,96138.88
2022-12-13T06:50:50.580Z,96132.88
2022-12-13T06:53:52.120Z,96141.91
2022-12-13T06:56:53.663Z,96144.03
2022-12-13T06:59:55.289Z,96141.38
2022-12-13T07:02:56.974Z,96141.19
2022-12-13T07:05:59.959Z,96134.13
2022-12-13T07:09:03.708Z,96139.19
2022-12-13T07:12:05.542Z,96147.97
2022-12-13T07:15:07.803Z,96150.53
2022-12-13T07:18:09.368Z,96143.94
2022-12-13T07:21:21.353Z,96156.47
2022-12-13T07:24:23.538Z,96156.56
2022-12-13T07:27:25.116Z,96156.13
2022-12-13T07:30:26.739Z,96162.81
2022-12-13T07:33:32.331Z,96164.47
2022-12-13T07:36:33.837Z,96157.13
2022-12-13T07:39:35.343Z,96170.34
2022-12-13T07:42:36.863Z,96167.38
2022-12-13T07:45:39.490Z,96173.88
2022-12-13T07:48:41.285Z,96183.13
2022-12-13T07:51:42.798Z,96164.94
2022-12-13T07:54:44.356Z,96173.69
2022-12-13T07:57:45.914Z,96168.06
2022-12-13T08:00:47.534Z,96177.13
2022-12-13T08:03:50.468Z,96183.69
2022-12-13T08:06:52.009Z,96181.88
2022-12-13T08:09:55.220Z,96196.34
2022-12-13T08:12:56.984Z,96194.31
2022-12-13T08:16:04.039Z,96207.06
2022-12-13T08:19:05.631Z,96195.66
2022-12-13T08:22:14.411Z,96195.59
2022-12-13T08:25:16.016Z,96202.72
2022-12-13T08:28:18.488Z,96179.78
2022-12-13T08:31:20.067Z,96201.13
2022-12-13T08:34:21.637Z,96204.50
2022-12-13T08:37:23.119Z,96199.88
2022-12-13T08:40:24.674Z,96194.91
2022-12-13T08:43:26.299Z,96192.72
2022-12-13T08:46:27.999Z,96185.41
2022-12-13T08:49:29.794Z,96187.13
2022-12-13T08:52:39.301Z,96187.97
2022-12-13T08:55:42.658Z,96196.91
2022-12-13T08:58:44.982Z,96197.00
2022-12-13T09:01:46.799Z,96182.16
2022-12-13T09:04:49.198Z,96192.13
2022-12-13T09:07:55.388Z,96192.28
2022-12-13T09:11:01.355Z,96188.91
2022-12-13T09:14:14.248Z,96189.56
2022-12-13T09:17:16.635Z,96190.88
2022-12-13T09:20:29.843Z,96189.97
2022-12-13T09:23:31.647Z,96188.00
2022-12-13T09:26:37.727Z,96187.25
2022-12-13T09:29:40.386Z,96192.16
2022-12-13T09:32:43.557Z,96186.63
2022-12-13T09:35:45.400Z,96195.56
2022-12-13T09:38:47.631Z,96189.28
2022-12-13T09:42:00.745Z,96196.28
2022-12-13T09:45:06.469Z,96187.56
2022-12-13T09:48:24.792Z,96180.53
2022-12-13T09:51:43.540Z,96193.13
2022-12-13T09:54:49.005Z,96186.34
2022-12-13T09:57:52.501Z,96178.56
2022-12-13T10:00:56.684Z,96172.81
2022-12-13T10:04:00.230Z,96169.28
2022-12-13T10:07:03.623Z,96161.47
2022-12-13T10:10:05.396Z,96158.53
2022-12-13T10:13:24.288Z,96151.66
2022-12-13T10:16:36.395Z,96154.81
2022-12-13T10:19:44.152Z,96156.38
2022-12-13T10:23:08.014Z,96161.25
2022-12-13T10:26:14.776Z,96159.72
2022-12-13T10:29:25.906Z,96163.13
2022-12-13T10:32:28.268Z,96153.63
2022-12-13T10:35:37.404Z,96159.25
2022-12-13T10:38:41.641Z,96155.22
2022-12-13T10:41:43.380Z,96151.44
2022-12-13T10:44:45.756Z,96147.91
2022-12-13T10:47:47.409Z,96151.94
2022-12-13T10:51:02.578Z,96154.38
2022-12-13T10:54:05.263Z,96152.38
2022-12-13T10:57:11.455Z,96137.41
2022-12-13T11:00:39.007Z,96149.06
2022-12-13T11:03:40.862Z,96152.50
2022-12-13T11:06:47.437Z,96158.13
2022-12-13T11:09:52.532Z,96152.59
2022-12-13T11:13:01.654Z,96149.41
2022-12-13T11:16:05.319Z,96146.50
2022-12-13T11:19:18.373Z,96138.03
2022-12-13T11:22:32.247Z,96133.47
2022-12-13T11:25:40.609Z,96125.22
2022-12-13T11:28:55.635Z,96132.50
2022-12-13T11:32:11.031Z,96119.00
2022-12-13T11:35:24.922Z,96134.09
2022-12-13T11:38:36.193Z,96140.84
2022-12-13T11:42:09.699Z,96133.47
2022-12-13T11:45:24.363Z,96130.50
2022-12-13T11:48:51.007Z,96131.78
2022-12-13T11:51:59.876Z,96133.31
2022-12-13T11:55:17.525Z,96138.38
2022-12-13T11:59:09.565Z,96128.16
2022-12-13T12:02:29.493Z,96126.63
2022-12-13T12:05:37.210Z,96124.28
2022-12-13T12:08:47.151Z,96124.97
2022-12-13T12:12:00.280Z,96123.09
2022-12-13T12:15:15.618Z,96117.34
2022-12-13T12:18:18.141Z,96114.78
2022-12-13T12:21:56.518Z,96114.19
2022-12-13T12:25:11.785Z,96105.97
2022-12-13T12:28:50.974Z,96106.78
2022-12-13T12:32:23.967Z,96101.72
2022-12-13T12:35:33.107Z,96102.78
2022-12-13T12:38:34.657Z,96112.31
2022-12-13T12:42:19.692Z,96119.81
2022-12-13T12:45:57.551Z,96114.06
2022-12-13T12:49:37.650Z,96119.47
2022-12-13T12:53:02.920Z,96121.81
2022-12-13T12:56:25.155Z,96116.53
2022-12-13T12:59:45.797Z,96125.22
2022-12-13T13:02:53.130Z,96126.19
2022-12-13T13:06:03.884Z,96124.28
2022-12-13T13:09:09.128Z,96128.41
2022-12-13T13:12:30.035Z,96114.03
2022-12-13T13:15:32.509Z,96116.56
2022-12-13T13:18:51.639Z,96114.53
2022-12-13T13:22:02.103Z,96114.44
2022-12-13T13:25:07.193Z,96114.97
2022-12-13T13:28:18.857Z,96120.25
2022-12-13T13:31:20.505Z,96131.66
2022-12-13T13:34:25.587Z,96125.38
2022-12-13T13:37:44.963Z,96106.63
2022-12-13T13:40:46.535Z,96107.16
2022-12-13T13:43:48.180Z,96097.97
2022-12-13T13:47:14.401Z,96092.91
2022-12-13T13:50:35.608Z,96081.47
2022-12-13T13:53:56.544Z,96081.56
2022-12-13T13:57:38.546Z,96077.16
2022-12-13T14:00:50.344Z,96072.97
2022-12-13T14:04:31.665Z,96086.63
2022-12-13T14:07:36.290Z,96088.69
2022-12-13T14:11:04.882Z,96097.28
2022-12-13T14:14:38.561Z,96075.59
2022-12-13T14:18:08.028Z,96084.59
2022-12-13T14:21:41.665Z,96100.59
2022-12-13T14:24:55.293Z,96095.16
2022-12-13T14:28:22.145Z,96092.00
2022-12-13T14:31:36.992Z,96112.44
2022-12-13T14:34:39.446Z,96113.97
2022-12-13T14:37:40.947Z,96109.53
2022-12-13T14:40:52.104Z,96113.69
2022-12-13T14:43:53.695Z,96105.00
2022-12-13T14:46:59.006Z,96110.53
2022-12-13T14:50:00.628Z,96117.88
2022-12-13T14:53:05.370Z,96109.72
2022-12-13T14:56:18.723Z,96113.16
2022-12-13T14:59:31.310Z,96102.13
2022-12-13T15:02:33.701Z,96107.16
2022-12-13T15:05:48.797Z,96105.41
2022-12-13T15:08:52.050Z,96098.03
2022-12-13T15:11:54.074Z,96089.78
2022-12-13T15:15:00.037Z,96096.47
2022-12-13T15:18:11.106Z,96098.25
2022-12-13T15:21:29.983Z,96098.13
2022-12-13T15:24:40.951Z,96099.31
2022-12-13T15:27:51.154Z,96093.81
2022-12-13T15:30:52.844Z,96109.91
2022-12-13T15:34:00.967Z,96099.22
2022-12-13T15:37:29.708Z,96109.25
2022-12-13T15:40:31.973Z,96107.47
2022-12-13T15:43:43.533Z,96108.19
2022-12-13T15:46:48.047Z,96112.88
2022-12-13T15:49:59.950Z,96099.63
2022-12-13T15:53:06.433Z,96100.19
2022-12-13T15:57:01.680Z,96107.81
2022-12-13T16:00:07.265Z,96096.78
2022-12-13T16:03:21.546Z,96075.53
2022-12-13T16:06:26.458Z,96075.75
2022-12-13T16:09:33.459Z,96057.09
2022-12-13T16:12:47.798Z,96045.19
2022-12-13T16:15:53.180Z,96040.47
2022-12-13T16:19:17.901Z,96020.97
2022-12-13T16:22:21.833Z,96016.28
2022-12-13T16:25:23.515Z,96008.50
2022-12-13T16:28:26.091Z,96006.03
2022-12-13T16:31:48.945Z,96011.94
2022-12-13T16:34:52.091Z,95997.25
2022-12-13T16:37:53.698Z,95998.69
2022-12-13T16:41:08.832Z,96001.38
2022-12-13T16:44:21.915Z,95998.84
2022-12-13T16:47:36.428Z,96008.00
2022-12-13T16:55:23.791Z,96004.97
2022-12-13T16:58:25.932Z,96027.03
2022-12-13T17:01:27.576Z,96023.47
2022-12-13T17:04:29.126Z,96019.31
2022-12-13T17:07:30.840Z,96026.03
2022-12-13T17:10:32.422Z,96025.06
2022-12-13T17:13:34.739Z,96015.22
2022-12-13T17:16:36.400Z,96024.72
2022-12-13T17:19:38.076Z,96033.06
2022-12-13T17:22:39.570Z,96024.59
2022-12-13T17:25:41.320Z,96021.53
2022-12-13T17:28:42.917Z,96018.59
2022-12-13T17:31:44.789Z,96023.75
2022-12-13T17:34:46.294Z,96026.91
2022-12-13T17:37:47.971Z,96026.91
2022-12-13T17:40:54.868Z,96026.66
2022-12-13T17:44:03.230Z,96028.06
2022-12-13T17:47:04.931Z,96033.72
2022-12-13T17:50:06.722Z,96046.53
2022-12-13T17:53:08.245Z,96037.56
2022-12-13T17:56:12.567Z,96023.31
2022-12-13T17:59:15.350Z,96031.19
2022-12-13T18:02:22.644Z,96033.50
2022-12-13T18:05:27.541Z,96035.97
2022-12-13T18:08:29.074Z,96016.69
2022-12-13T18:11:33.665Z,96022.56
2022-12-13T18:14:36.648Z,96012.91
2022-12-13T18:18:09.465Z,96015.50
2022-12-13T18:21:07.408Z,96015.94
2022-12-13T18:24:09.686Z,96005.25
2022-12-13T18:27:17.817Z,96009.34
2022-12-13T18:30:19.558Z,96002.31
2022-12-13T18:33:31.104Z,95997.28
2022-12-13T18:36:33.262Z,95989.63
2022-12-13T18:39:35.011Z,95989.63
2022-12-13T18:42:36.679Z,95984.44
2022-12-13T18:45:38.210Z,95985.03
2022-12-13T18:48:39.984Z,95981.63
2022-12-13T18:51:45.986Z,95969.44
2022-12-13T18:54:54.579Z,95972.34
2022-12-13T18:57:56.673Z,95977.03
2022-12-13T19:00:58.581Z,95969.13
2022-12-13T19:04:00.360Z,95960.28
2022-12-13T19:07:01.988Z,95955.09
2022-12-13T19:10:05.224Z,95956.63
2022-12-13T19:13:06.709Z,95942.69
2022-12-13T19:16:10.989Z,95938.31
2022-12-13T19:19:13.178Z,95921.31
2022-12-13T19:22:15.765Z,95913.28
2022-12-13T19:25:17.343Z,95916.66
2022-12-13T19:28:18.971Z,95905.22
2022-12-13T19:31:23.160Z,95895.81
2022-12-13T19:34:28.588Z,95892.03
2022-12-13T19:37:30.159Z,95887.84
2022-12-13T19:40:31.758Z,95880.38
2022-12-13T19:43:36.878Z,95870.84
2022-12-13T19:46:38.515Z,95860.13
2022-12-13T19:49:40.078Z,95844.97
2022-12-13T19:52:41.988Z,95848.91
2022-12-13T19:55:48.329Z,95835.41
2022-12-13T19:58:51.115Z,95843.03
2022-12-13T20:01:52.764Z,95849.84
2022-12-13T20:04:54.428Z,95849.41
2022-12-13T20:07:58.045Z,95844.75
2022-12-13T20:11:09.111Z,95853.44
2022-12-13T20:14:10.614Z,95862.09
2022-12-13T20:17:12.089Z,95869.47
2022-12-13T20:20:13.792Z,95883.25
2022-12-13T20:23:15.924Z,95883.91
2022-12-13T20:26:23.170Z,95889.00
2022-12-13T20:29:24.945Z,95883.31
2022-12-13T20:32:26.806Z,95880.47
2022-12-13T20:35:28.510Z,95879.00
2022-12-13T20:38:30.445Z,95885.31
2022-12-13T20:41:34.458Z,95886.44
2022-12-13T20:44:36.568Z,95875.41
2022-12-13T20:47:38.285Z,95885.91
2022-12-13T20:50:40.005Z,95892.97
2022-12-13T20:53:46.878Z,95889.19
2022-12-13T20:56:48.503Z,95898.47
2022-12-13T20:59:50.086Z,95898.47
2022-12-13T21:02:51.699Z,95893.66
2022-12-13T21:06:00.281Z,95889.63
2022-12-13T21:09:03.755Z,95879.91
2022-12-13T21:12:05.456Z,95884.97
2022-12-13T21:15:11.017Z,95891.38
2022-12-13T21:18:17.931Z,95893.97
2022-12-13T21:21:19.948Z,95895.47
2022-12-13T21:24:23.728Z,95896.94
2022-12-13T21:27:25.370Z,95887.81
2022-12-13T21:30:26.888Z,95876.91
2022-12-13T21:33:29.347Z,95881.28
2022-12-13T21:36:34.498Z,95875.00
2022-12-13T21:39:35.999Z,95867.69
2022-12-13T21:42:38.570Z,95862.75
2022-12-13T21:45:42.892Z,95861.66
2022-12-13T21:48:45.941Z,95853.06
2022-12-13T21:51:48.397Z,95846.81
2022-12-13T21:54:52.917Z,95832.34
2022-12-13T21:58:20.486Z,95807.56
2022-12-13T22:01:24.718Z,95823.16
2022-12-13T22:04:26.292Z,95807.88
2022-12-13T22:07:30.008Z,95807.75
2022-12-13T22:10:31.723Z,95805.03
2022-12-13T22:13:33.381Z,95801.09
2022-12-13T22:16:35.091Z,95798.22
2022-12-13T22:19:36.611Z,95790.56
2022-12-13T22:22:39.819Z,95782.41
2022-12-13T22:25:41.306Z,95781.31
2022-12-13T22:28:42.833Z,95791.94
2022-12-13T22:31:44.516Z,95789.03
2022-12-13T22:34:50.634Z,95784.81
2022-12-13T22:37:52.840Z,95791.59
2022-12-13T22:40:54.310Z,95793.34
2022-12-13T22:43:56.281Z,95797.81
2022-12-13T22:46:57.807Z,95790.28
2022-12-13T22:49:59.388Z,95788.44
2022-12-13T22:53:01.702Z,95806.03
2022-12-13T22:56:11.478Z,95790.13
2022-12-13T22:59:13.017Z,95796.97
2022-12-13T23:02:14.752Z,95803.38
2022-12-13T23:05:16.640Z,95798.75
2022-12-13T23:08:18.081Z,95798.47
2022-12-13T23:11:39.031Z,95797.25
2022-12-13T23:14:40.507Z,95798.22
2022-12-13T23:17:41.999Z,95788.97
2022-12-13T23:20:45.391Z,95779.56
2022-12-13T23:23:50.144Z,95774.94
2022-12-13T23:26:51.728Z,95764.53
2022-12-13T23:29:53.213Z,95766.63
2022-12-13T23:32:55.656Z,95771.78
2022-12-13T23:36:06.304Z,95771.38
2022-12-13T23:39:11.493Z,95760.34
2022-12-13T23:42:13.363Z,95750.22
2022-12-13T23:45:15.212Z,95748.31
2022-12-13T23:48:16.705Z,95744.25
2022-12-13T23:51:18.951Z,95750.13
2022-12-13T23:54:20.508Z,95747.00
2022-12-13T23:57:22.019Z,95752.19
